createdAt,value
2017-08-24T00:00:52.945Z,69.74
2017-08-24T00:02:54.458Z,69.16
2017-08-24T00:04:55.912Z,69.84
2017-08-24T00:06:57.389Z,69.74
2017-08-24T00:08:58.991Z,69.84
2017-08-24T00:11:00.439Z,69.64
2017-08-24T00:13:01.957Z,70.28
2017-08-24T00:15:03.454Z,70.67
2017-08-24T00:17:04.949Z,71.54
2017-08-24T00:19:06.451Z,71.06
2017-08-24T00:21:07.838Z,71.73
2017-08-24T00:23:09.270Z,71.83
2017-08-24T00:25:10.701Z,72.79
2017-08-24T00:27:12.136Z,73.08
2017-08-24T00:29:13.562Z,73.66
2017-08-24T00:31:15.001Z,73.57
2017-08-24T00:33:16.443Z,74.72
2017-08-24T00:35:17.878Z,74.91
2017-08-24T00:37:19.304Z,75.65
2017-08-24T00:39:20.741Z,75.65
2017-08-24T00:41:22.166Z,76.13
2017-08-24T00:43:23.606Z,76.61
2017-08-24T00:45:25.038Z,77.09
2017-08-24T00:47:26.469Z,77.09
2017-08-24T00:49:27.898Z,77.28
2017-08-24T00:51:29.332Z,77.00
2017-08-24T00:53:30.764Z,77.58
2017-08-24T00:55:32.192Z,78.06
2017-08-24T00:58:14.617Z,78.44
2017-08-24T01:00:16.048Z,79.17
2017-08-24T01:02:17.479Z,79.75
2017-08-24T01:04:18.911Z,80.23
2017-08-24T01:06:20.342Z,80.43
2017-08-24T01:08:21.775Z,81.10
2017-08-24T01:10:23.208Z,81.48
2017-08-24T01:12:24.632Z,81.77
2017-08-24T01:14:26.069Z,82.74
2017-08-24T01:16:27.498Z,83.03
2017-08-24T01:18:28.931Z,83.03
2017-08-24T01:20:30.362Z,83.31
2017-08-24T01:22:31.793Z,83.51
2017-08-24T01:24:33.224Z,83.70
2017-08-24T01:26:34.656Z,84.09
2017-08-24T01:28:36.091Z,84.37
2017-08-24T01:30:37.521Z,84.47
2017-08-24T01:32:38.954Z,84.28
2017-08-24T01:34:40.385Z,85.63
2017-08-24T01:36:41.814Z,86.40
2017-08-24T01:38:43.249Z,86.59
2017-08-24T01:40:44.678Z,87.36
2017-08-24T01:42:46.106Z,87.12
2017-08-24T01:44:47.544Z,87.55
2017-08-24T01:46:48.969Z,87.26
2017-08-24T01:48:50.426Z,87.55
2017-08-24T01:50:51.859Z,87.80
2017-08-24T01:52:53.288Z,88.18
2017-08-24T01:54:54.716Z,88.42
2017-08-24T01:56:56.166Z,87.55
2017-08-24T01:58:57.583Z,87.65
2017-08-24T02:01:40.000Z,87.55
2017-08-24T02:03:41.436Z,87.46
2017-08-24T02:05:42.862Z,87.65
2017-08-24T02:07:44.288Z,88.32
2017-08-24T02:09:45.715Z,88.18
2017-08-24T02:11:47.153Z,88.57
2017-08-24T02:13:48.581Z,88.57
2017-08-24T02:15:50.004Z,89.34
2017-08-24T02:17:51.441Z,89.53
2017-08-24T02:19:52.886Z,89.05
2017-08-24T02:21:54.299Z,88.85
2017-08-24T02:23:55.732Z,89.05
2017-08-24T02:25:57.161Z,89.34
2017-08-24T02:27:58.589Z,89.05
2017-08-24T02:30:00.020Z,89.05
2017-08-24T02:32:01.479Z,88.28
2017-08-24T02:34:02.913Z,88.47
2017-08-24T02:36:45.420Z,88.67
2017-08-24T02:38:46.850Z,89.15
2017-08-24T02:40:48.280Z,88.28
2017-08-24T02:42:49.708Z,88.57
2017-08-24T02:44:51.140Z,88.47
2017-08-24T02:46:52.564Z,88.18
2017-08-24T02:48:53.993Z,89.24
2017-08-24T02:50:55.424Z,88.95
2017-08-24T02:52:56.850Z,88.95
2017-08-24T02:54:58.276Z,89.29
2017-08-24T02:56:59.708Z,89.15
2017-08-24T02:59:01.145Z,88.85
2017-08-24T03:01:02.571Z,88.38
2017-08-24T03:03:03.997Z,87.90
2017-08-24T03:05:05.428Z,87.80
2017-08-24T03:07:06.858Z,87.80
2017-08-24T03:09:08.279Z,88.38
2017-08-24T03:11:09.716Z,88.57
2017-08-24T03:13:11.146Z,88.81
2017-08-24T03:15:12.574Z,88.71
2017-08-24T03:17:14.003Z,88.91
2017-08-24T03:19:15.435Z,88.81
2017-08-24T03:21:16.866Z,89.01
2017-08-24T03:23:18.294Z,89.01
2017-08-24T03:25:19.723Z,89.01
2017-08-24T03:27:21.152Z,88.91
2017-08-24T03:29:22.582Z,88.43
2017-08-24T03:31:24.003Z,88.04
2017-08-24T03:33:25.434Z,88.43
2017-08-24T03:36:07.869Z,88.43
2017-08-24T03:38:09.302Z,88.43
2017-08-24T03:40:10.732Z,88.53
2017-08-24T03:42:12.161Z,88.43
2017-08-24T03:44:13.592Z,88.14
2017-08-24T03:46:15.023Z,88.57
2017-08-24T03:48:57.456Z,88.39
2017-08-24T03:50:58.881Z,88.39
2017-08-24T03:53:00.320Z,88.33
2017-08-24T03:55:01.751Z,88.10
2017-08-24T03:57:03.174Z,88.00
2017-08-24T03:59:04.602Z,87.37
2017-08-24T04:01:06.037Z,87.27
2017-08-24T04:03:07.462Z,87.27
2017-08-24T04:05:08.890Z,86.79
2017-08-24T04:07:10.319Z,87.08
2017-08-24T04:09:11.746Z,86.65
2017-08-24T04:11:13.178Z,87.33
2017-08-24T04:13:14.605Z,86.89
2017-08-24T04:15:16.036Z,86.41
2017-08-24T04:17:17.463Z,86.02
2017-08-24T04:19:18.889Z,85.64
2017-08-24T04:21:20.322Z,86.22
2017-08-24T04:23:21.749Z,85.35
2017-08-24T04:25:23.181Z,85.16
2017-08-24T04:27:24.633Z,85.16
2017-08-24T04:29:26.038Z,85.44
2017-08-24T04:31:27.473Z,85.35
2017-08-24T04:33:28.902Z,85.64
2017-08-24T04:35:30.334Z,85.06
2017-08-24T04:37:31.776Z,85.54
2017-08-24T04:39:33.205Z,85.74
2017-08-24T04:41:34.635Z,85.54
2017-08-24T04:43:36.068Z,85.54
2017-08-24T04:46:18.504Z,85.35
2017-08-24T04:48:19.941Z,86.22
2017-08-24T04:50:21.392Z,86.12
2017-08-24T04:52:22.824Z,86.41
2017-08-24T04:54:24.269Z,86.36
2017-08-24T04:56:25.722Z,85.93
2017-08-24T04:58:27.163Z,85.98
2017-08-24T05:00:28.601Z,86.65
2017-08-24T05:02:30.042Z,86.08
2017-08-24T05:04:31.480Z,85.98
2017-08-24T05:06:32.925Z,85.50
2017-08-24T05:08:34.361Z,85.74
2017-08-24T05:10:35.799Z,86.18
2017-08-24T05:12:37.241Z,86.85
2017-08-24T05:14:38.690Z,86.46
2017-08-24T05:16:40.128Z,86.75
2017-08-24T05:18:41.570Z,86.12
2017-08-24T05:20:43.008Z,86.08
2017-08-24T05:23:25.458Z,86.36
2017-08-24T05:25:26.900Z,85.69
2017-08-24T05:27:28.335Z,86.46
2017-08-24T05:29:29.774Z,87.04
2017-08-24T05:31:31.211Z,87.04
2017-08-24T05:33:32.647Z,87.04
2017-08-24T05:35:34.093Z,86.56
2017-08-24T05:37:35.524Z,85.88
2017-08-24T05:39:36.965Z,85.78
2017-08-24T05:41:38.406Z,86.08
2017-08-24T05:43:39.843Z,86.27
2017-08-24T05:45:41.303Z,85.50
2017-08-24T05:47:42.742Z,85.11
2017-08-24T05:49:44.182Z,85.50
2017-08-24T05:51:45.617Z,85.88
2017-08-24T05:53:47.057Z,85.60
2017-08-24T05:55:48.504Z,85.50
2017-08-24T05:57:49.942Z,85.98
2017-08-24T05:59:51.379Z,86.08
2017-08-24T06:01:52.830Z,86.18
2017-08-24T06:03:54.261Z,86.18
2017-08-24T06:05:55.694Z,86.18
2017-08-24T06:07:57.119Z,86.61
2017-08-24T06:09:58.555Z,86.04
2017-08-24T06:12:40.993Z,86.56
2017-08-24T06:14:42.427Z,86.36
2017-08-24T06:16:43.858Z,86.08
2017-08-24T06:18:45.291Z,86.18
2017-08-24T06:20:46.730Z,86.36
2017-08-24T06:22:48.154Z,86.56
2017-08-24T06:24:49.625Z,85.98
2017-08-24T06:26:51.052Z,86.18
2017-08-24T06:28:52.485Z,85.31
2017-08-24T06:30:53.917Z,85.69
2017-08-24T06:32:55.349Z,85.88
2017-08-24T06:34:56.782Z,85.88
2017-08-24T06:36:58.207Z,86.08
2017-08-24T06:38:59.644Z,86.18
2017-08-24T06:41:01.076Z,86.18
2017-08-24T06:43:02.507Z,86.27
2017-08-24T06:45:03.937Z,85.88
2017-08-24T06:47:05.392Z,85.50
2017-08-24T06:49:06.802Z,85.50
2017-08-24T06:51:08.234Z,84.92
2017-08-24T06:53:09.663Z,85.40
2017-08-24T06:55:11.095Z,85.50
2017-08-24T06:57:12.527Z,84.92
2017-08-24T06:59:13.972Z,85.31
2017-08-24T07:01:15.391Z,85.31
2017-08-24T07:03:57.834Z,86.08
2017-08-24T07:05:59.267Z,85.40
2017-08-24T07:08:00.698Z,86.18
2017-08-24T07:10:02.140Z,86.08
2017-08-24T07:12:03.578Z,85.31
2017-08-24T07:14:05.014Z,85.50
2017-08-24T07:16:06.439Z,85.40
2017-08-24T07:18:48.860Z,85.21
2017-08-24T07:20:50.291Z,84.39
2017-08-24T07:22:51.725Z,85.06
2017-08-24T07:24:53.161Z,85.21
2017-08-24T07:26:54.589Z,85.40
2017-08-24T07:28:56.021Z,86.08
2017-08-24T07:30:57.456Z,85.31
2017-08-24T07:33:38.882Z,85.11
2017-08-24T07:35:40.320Z,86.08
2017-08-24T07:37:41.743Z,86.27
2017-08-24T07:39:43.183Z,86.18
2017-08-24T07:41:44.616Z,85.88
2017-08-24T07:43:46.049Z,86.52
2017-08-24T07:45:47.481Z,86.61
2017-08-24T07:47:48.915Z,86.85
2017-08-24T07:49:50.349Z,86.65
2017-08-24T07:52:32.767Z,86.04
2017-08-24T07:54:34.207Z,86.75
2017-08-24T07:56:35.639Z,86.08
2017-08-24T07:58:37.069Z,86.08
2017-08-24T08:00:38.499Z,85.98
2017-08-24T08:02:39.930Z,86.18
2017-08-24T08:04:41.353Z,85.98
2017-08-24T08:06:42.787Z,85.60
2017-08-24T08:08:44.230Z,85.31
2017-08-24T08:10:45.655Z,85.31
2017-08-24T08:12:47.085Z,85.50
2017-08-24T08:14:48.521Z,85.50
2017-08-24T08:16:49.949Z,85.60
2017-08-24T08:18:51.377Z,85.88
2017-08-24T08:20:52.811Z,85.50
2017-08-24T08:22:54.250Z,85.60
2017-08-24T08:24:55.681Z,85.11
2017-08-24T08:26:57.111Z,85.31
2017-08-24T08:28:58.559Z,85.78
2017-08-24T08:30:59.991Z,85.60
2017-08-24T08:33:42.422Z,86.08
2017-08-24T08:35:43.857Z,85.98
2017-08-24T08:37:45.292Z,86.12
2017-08-24T08:39:46.725Z,86.12
2017-08-24T08:41:48.160Z,85.74
2017-08-24T08:43:49.592Z,85.25
2017-08-24T08:45:51.019Z,85.06
2017-08-24T08:48:33.429Z,84.97
2017-08-24T08:50:34.848Z,86.31
2017-08-24T08:52:36.293Z,85.35
2017-08-24T08:54:37.721Z,85.35
2017-08-24T08:56:39.145Z,84.39
2017-08-24T08:58:40.573Z,84.10
2017-08-24T09:00:42.002Z,84.29
2017-08-24T09:02:43.457Z,84.87
2017-08-24T09:04:44.905Z,84.92
2017-08-24T09:06:46.331Z,85.60
2017-08-24T09:08:47.759Z,86.08
2017-08-24T09:10:49.189Z,87.04
2017-08-24T09:12:50.614Z,86.85
2017-08-24T09:14:52.042Z,86.56
2017-08-24T09:16:53.466Z,86.89
2017-08-24T09:18:54.893Z,85.54
2017-08-24T09:20:56.321Z,85.44
2017-08-24T09:22:57.747Z,85.39
2017-08-24T09:24:59.176Z,83.75
2017-08-24T09:27:00.604Z,84.23
2017-08-24T09:29:02.032Z,84.67
2017-08-24T09:31:03.460Z,85.10
2017-08-24T09:33:04.890Z,84.14
2017-08-24T09:35:06.333Z,84.43
2017-08-24T09:37:07.759Z,84.97
2017-08-24T09:39:09.189Z,84.91
2017-08-24T09:41:51.617Z,84.23
2017-08-24T09:43:53.033Z,83.18
2017-08-24T09:45:54.469Z,83.28
2017-08-24T09:48:36.876Z,83.41
2017-08-24T09:50:38.310Z,82.06
2017-08-24T09:52:39.733Z,81.96
2017-08-24T09:54:41.164Z,82.74
2017-08-24T09:56:42.599Z,81.48
2017-08-24T09:59:25.012Z,82.54
2017-08-24T10:01:26.439Z,82.64
2017-08-24T10:03:27.867Z,81.96
2017-08-24T10:05:29.312Z,81.77
2017-08-24T10:07:30.738Z,81.81
2017-08-24T10:09:32.167Z,81.14
2017-08-24T10:11:33.598Z,81.14
2017-08-24T10:13:35.048Z,79.89
2017-08-24T10:15:36.476Z,78.48
2017-08-24T10:17:37.906Z,79.44
2017-08-24T10:19:39.338Z,78.48
2017-08-24T10:21:40.767Z,78.81
2017-08-24T10:23:42.199Z,77.94
2017-08-24T10:25:43.629Z,77.07
2017-08-24T10:27:45.060Z,77.07
2017-08-24T10:29:46.556Z,76.34
2017-08-24T10:31:47.930Z,76.34
2017-08-24T10:33:49.360Z,75.57
2017-08-24T10:35:50.792Z,74.69
2017-08-24T10:37:52.231Z,75.57
2017-08-24T10:39:53.652Z,75.37
2017-08-24T10:41:55.086Z,76.24
2017-08-24T10:43:56.521Z,75.95
2017-08-24T10:45:57.960Z,76.30
2017-08-24T10:47:59.386Z,76.24
2017-08-24T10:50:41.805Z,75.47
2017-08-24T10:52:43.235Z,76.37
2017-08-24T10:54:44.666Z,75.79
2017-08-24T10:56:46.109Z,74.64
2017-08-24T10:58:47.541Z,75.51
2017-08-24T11:00:48.979Z,74.73
2017-08-24T11:02:50.407Z,73.96
2017-08-24T11:04:51.844Z,74.73
2017-08-24T11:06:53.272Z,74.16
2017-08-24T11:08:54.710Z,74.64
2017-08-24T11:10:56.141Z,74.35
2017-08-24T11:12:57.577Z,73.96
2017-08-24T11:14:59.006Z,75.02
2017-08-24T11:17:00.445Z,74.73
2017-08-24T11:19:01.878Z,74.93
2017-08-24T11:21:03.327Z,74.54
2017-08-24T11:23:04.762Z,73.77
2017-08-24T11:25:06.193Z,74.29
2017-08-24T11:27:07.630Z,73.52
2017-08-24T11:29:09.060Z,73.48
2017-08-24T11:31:10.496Z,74.54
2017-08-24T11:33:11.936Z,73.09
2017-08-24T11:35:13.369Z,73.77
2017-08-24T11:37:14.811Z,73.19
2017-08-24T11:39:16.237Z,73.67
2017-08-24T11:41:17.677Z,71.94
2017-08-24T11:43:19.111Z,72.71
2017-08-24T11:45:20.572Z,72.26
2017-08-24T11:47:21.979Z,71.78
2017-08-24T11:49:23.418Z,70.52
2017-08-24T11:51:24.849Z,71.87
2017-08-24T11:53:26.287Z,72.06
2017-08-24T11:55:27.718Z,72.06
2017-08-24T11:57:29.157Z,73.16
2017-08-24T11:59:30.592Z,70.50
2017-08-24T12:01:32.031Z,68.95
2017-08-24T12:03:33.466Z,67.72
2017-08-24T12:05:34.895Z,68.59
2017-08-24T12:07:36.354Z,68.98
2017-08-24T12:09:37.783Z,66.98
2017-08-24T12:11:39.223Z,67.66
2017-08-24T12:13:40.661Z,67.11
2017-08-24T12:15:42.109Z,65.43
2017-08-24T12:17:43.544Z,66.69
2017-08-24T12:19:44.988Z,65.53
2017-08-24T12:21:46.417Z,65.59
2017-08-24T12:23:47.866Z,66.37
2017-08-24T12:25:49.300Z,67.14
2017-08-24T12:27:50.736Z,66.47
2017-08-24T12:29:52.171Z,66.24
2017-08-24T12:31:53.593Z,66.91
2017-08-24T12:33:55.082Z,66.05
2017-08-24T12:35:56.537Z,69.01
2017-08-24T12:37:58.076Z,65.72
2017-08-24T12:39:59.530Z,67.36
2017-08-24T12:42:00.991Z,65.43
2017-08-24T12:44:02.450Z,65.56
2017-08-24T12:46:03.899Z,65.85
2017-08-24T12:48:05.445Z,65.95
2017-08-24T12:50:06.888Z,66.91
2017-08-24T12:52:08.325Z,68.11
2017-08-24T12:54:09.757Z,66.24
2017-08-24T12:56:11.193Z,66.33
2017-08-24T12:58:12.628Z,66.82
2017-08-24T13:00:14.059Z,67.69
2017-08-24T13:02:15.496Z,65.37
2017-08-24T13:04:16.927Z,65.27
2017-08-24T13:06:18.372Z,65.66
2017-08-24T13:08:19.805Z,66.24
2017-08-24T13:10:21.244Z,63.92
2017-08-24T13:12:22.677Z,65.20
2017-08-24T13:14:24.118Z,64.14
2017-08-24T13:16:25.563Z,65.40
2017-08-24T13:18:26.985Z,64.89
2017-08-24T13:20:28.422Z,64.62
2017-08-24T13:22:29.863Z,62.40
2017-08-24T13:24:31.310Z,62.53
2017-08-24T13:26:32.743Z,62.98
2017-08-24T13:28:34.174Z,63.59
2017-08-24T13:30:35.608Z,62.88
2017-08-24T13:32:37.038Z,64.53
2017-08-24T13:34:38.491Z,64.43
2017-08-24T13:36:39.927Z,64.82
2017-08-24T13:38:41.371Z,64.34
2017-08-24T13:40:42.796Z,65.01
2017-08-24T13:42:44.263Z,64.43
2017-08-24T13:44:45.688Z,63.24
2017-08-24T13:46:47.153Z,63.73
2017-08-24T13:48:48.585Z,63.82
2017-08-24T13:50:50.021Z,64.11
2017-08-24T13:52:51.444Z,61.89
2017-08-24T13:54:52.898Z,63.05
2017-08-24T13:56:54.342Z,62.08
2017-08-24T13:58:55.768Z,63.40
2017-08-24T14:01:38.200Z,62.63
2017-08-24T14:03:39.639Z,63.40
2017-08-24T14:05:41.072Z,63.89
2017-08-24T14:07:42.528Z,64.47
2017-08-24T14:09:43.952Z,64.18
2017-08-24T14:11:45.390Z,64.76
2017-08-24T14:13:46.828Z,62.92
2017-08-24T14:15:48.261Z,62.44
2017-08-24T14:17:49.700Z,62.60
2017-08-24T14:19:51.132Z,63.95
2017-08-24T14:21:52.564Z,63.66
2017-08-24T14:23:53.993Z,62.50
2017-08-24T14:25:55.429Z,63.37
2017-08-24T14:27:56.862Z,61.34
2017-08-24T14:29:58.297Z,63.11
2017-08-24T14:31:59.765Z,62.24
2017-08-24T14:34:01.225Z,63.89
2017-08-24T14:36:02.644Z,63.18
2017-08-24T14:38:04.077Z,63.56
2017-08-24T14:40:05.510Z,62.89
2017-08-24T14:42:06.941Z,63.69
2017-08-24T14:44:49.369Z,61.37
2017-08-24T14:46:50.807Z,63.11
2017-08-24T14:48:52.239Z,63.21
2017-08-24T14:50:53.669Z,63.40
2017-08-24T14:52:55.105Z,63.63
2017-08-24T14:54:56.536Z,61.47
2017-08-24T14:56:57.974Z,61.37
2017-08-24T14:58:59.399Z,62.73
2017-08-24T15:01:00.839Z,62.05
2017-08-24T15:03:02.272Z,62.44
2017-08-24T15:05:03.701Z,62.76
2017-08-24T15:07:05.139Z,62.27
2017-08-24T15:09:06.572Z,62.18
2017-08-24T15:11:08.001Z,61.89
2017-08-24T15:13:09.432Z,61.27
2017-08-24T15:15:10.859Z,63.40
2017-08-24T15:17:12.301Z,63.50
2017-08-24T15:19:13.733Z,62.44
2017-08-24T15:21:15.169Z,63.02
2017-08-24T15:23:16.605Z,61.89
2017-08-24T15:25:18.053Z,61.30
2017-08-24T15:28:00.468Z,62.56
2017-08-24T15:30:01.895Z,61.89
2017-08-24T15:32:03.322Z,62.76
2017-08-24T15:34:04.760Z,62.47
2017-08-24T15:36:06.204Z,61.69
2017-08-24T15:38:07.741Z,62.50
2017-08-24T15:40:09.124Z,61.63
2017-08-24T15:42:10.567Z,60.05
2017-08-24T15:44:12.003Z,60.82
2017-08-24T15:46:13.467Z,59.56
2017-08-24T15:48:14.927Z,59.76
2017-08-24T15:50:16.364Z,60.34
2017-08-24T15:52:17.799Z,59.28
2017-08-24T15:54:19.243Z,60.63
2017-08-24T15:56:20.679Z,60.05
2017-08-24T15:58:22.113Z,59.47
2017-08-24T16:00:23.541Z,60.82
2017-08-24T16:02:25.067Z,60.02
2017-08-24T16:04:26.511Z,60.69
2017-08-24T16:06:27.946Z,60.41
2017-08-24T16:08:29.380Z,60.60
2017-08-24T16:10:30.813Z,61.08
2017-08-24T16:12:32.244Z,60.02
2017-08-24T16:14:33.668Z,60.89
2017-08-24T16:16:35.106Z,60.21
2017-08-24T16:18:36.551Z,59.73
2017-08-24T16:20:38.008Z,58.95
2017-08-24T16:22:39.544Z,58.95
2017-08-24T16:24:41.064Z,60.02
2017-08-24T16:26:42.550Z,59.73
2017-08-24T16:28:44.098Z,60.82
2017-08-24T16:30:45.560Z,60.24
2017-08-24T16:32:47.072Z,58.89
2017-08-24T16:34:48.550Z,59.21
2017-08-24T16:36:50.038Z,58.98
2017-08-24T16:38:51.473Z,58.89
2017-08-24T16:40:52.907Z,58.89
2017-08-24T16:42:54.339Z,59.28
2017-08-24T16:44:55.776Z,59.86
2017-08-24T16:46:57.203Z,59.63
2017-08-24T16:48:58.652Z,60.31
2017-08-24T16:51:41.098Z,60.11
2017-08-24T16:53:42.535Z,60.02
2017-08-24T16:55:43.965Z,61.18
2017-08-24T16:57:45.397Z,61.27
2017-08-24T16:59:46.827Z,61.76
2017-08-24T17:01:48.261Z,60.72
2017-08-24T17:03:49.693Z,60.79
2017-08-24T17:05:51.120Z,60.89
2017-08-24T17:07:52.560Z,60.79
2017-08-24T17:09:54.094Z,60.69
2017-08-24T17:11:55.521Z,61.47
2017-08-24T17:14:37.934Z,61.37
2017-08-24T17:16:39.368Z,61.86
2017-08-24T17:18:41.043Z,61.37
2017-08-24T17:20:42.470Z,61.76
2017-08-24T17:22:43.906Z,60.99
2017-08-24T17:24:45.335Z,61.34
2017-08-24T17:26:46.773Z,61.25
2017-08-24T17:28:48.205Z,62.60
2017-08-24T17:30:49.637Z,61.86
2017-08-24T17:33:32.044Z,62.15
2017-08-24T17:35:33.483Z,63.40
2017-08-24T17:37:34.914Z,63.21
2017-08-24T17:39:36.343Z,62.70
2017-08-24T17:41:37.781Z,62.89
2017-08-24T17:43:39.217Z,63.21
2017-08-24T17:45:40.651Z,64.34
2017-08-24T17:47:42.084Z,64.43
2017-08-24T17:49:43.514Z,64.72
2017-08-24T17:51:44.946Z,64.72
2017-08-24T17:53:46.381Z,64.34
2017-08-24T17:55:47.804Z,64.05
2017-08-24T17:57:49.239Z,64.43
2017-08-24T17:59:50.665Z,64.66
2017-08-24T18:01:52.096Z,65.43
2017-08-24T18:03:53.528Z,64.43
2017-08-24T18:05:54.957Z,64.63
2017-08-24T18:07:56.394Z,63.95
2017-08-24T18:09:57.822Z,64.63
2017-08-24T18:11:59.253Z,65.20
2017-08-24T18:14:00.686Z,65.20
2017-08-24T18:16:02.111Z,65.69
2017-08-24T18:18:03.563Z,65.69
2017-08-24T18:20:04.990Z,65.98
2017-08-24T18:22:06.421Z,65.20
2017-08-24T18:24:07.847Z,65.27
2017-08-24T18:26:09.276Z,64.98
2017-08-24T18:28:10.697Z,65.17
2017-08-24T18:30:12.135Z,64.79
2017-08-24T18:32:13.562Z,66.43
2017-08-24T18:34:14.989Z,66.24
2017-08-24T18:36:16.417Z,66.24
2017-08-24T18:38:17.849Z,66.43
2017-08-24T18:40:19.273Z,66.49
2017-08-24T18:42:20.702Z,66.59
2017-08-24T18:44:22.130Z,66.69
2017-08-24T18:46:23.583Z,67.07
2017-08-24T18:48:24.989Z,67.17
2017-08-24T18:50:26.412Z,67.17
2017-08-24T18:52:27.836Z,67.46
2017-08-24T18:54:29.271Z,68.23
2017-08-24T18:56:30.697Z,68.04
2017-08-24T18:58:32.125Z,68.62
2017-08-24T19:00:33.552Z,69.00
2017-08-24T19:02:34.978Z,68.71
2017-08-24T19:04:36.403Z,68.81
2017-08-24T19:06:37.831Z,69.00
2017-08-24T19:08:39.259Z,68.97
2017-08-24T19:10:40.681Z,68.77
2017-08-24T19:12:42.115Z,68.49
2017-08-24T19:14:43.543Z,69.07
2017-08-24T19:16:44.968Z,68.68
2017-08-24T19:18:46.395Z,68.87
2017-08-24T19:20:47.827Z,69.07
2017-08-24T19:22:49.251Z,69.26
2017-08-24T19:24:50.682Z,69.07
2017-08-24T19:26:52.107Z,68.59
2017-08-24T19:28:53.580Z,68.77
2017-08-24T19:30:54.987Z,69.07
2017-08-24T19:32:56.413Z,68.77
2017-08-24T19:34:57.841Z,68.97
2017-08-24T19:36:59.270Z,69.26
2017-08-24T19:39:00.693Z,69.61
2017-08-24T19:41:02.116Z,69.51
2017-08-24T19:43:03.544Z,69.71
2017-08-24T19:45:04.980Z,69.51
2017-08-24T19:47:06.402Z,69.71
2017-08-24T19:49:07.832Z,69.80
2017-08-24T19:51:09.258Z,69.80
2017-08-24T19:53:10.686Z,69.51
2017-08-24T19:55:12.105Z,69.32
2017-08-24T19:57:13.538Z,69.80
2017-08-24T19:59:14.980Z,69.61
2017-08-24T20:01:16.396Z,70.09
2017-08-24T20:03:17.823Z,69.80
2017-08-24T20:05:19.249Z,70.09
2017-08-24T20:07:20.673Z,70.28
2017-08-24T20:09:22.099Z,69.90
2017-08-24T20:11:23.529Z,70.48
2017-08-24T20:13:24.980Z,70.76
2017-08-24T20:15:26.381Z,69.80
2017-08-24T20:17:27.811Z,70.09
2017-08-24T20:19:29.254Z,70.19
2017-08-24T20:21:30.686Z,70.48
2017-08-24T20:23:32.111Z,70.09
2017-08-24T20:25:33.537Z,69.67
2017-08-24T20:27:34.965Z,70.19
2017-08-24T20:29:36.413Z,69.67
2017-08-24T20:31:37.859Z,70.54
2017-08-24T20:33:39.285Z,70.44
2017-08-24T20:35:40.709Z,70.64
2017-08-24T20:37:42.130Z,70.54
2017-08-24T20:39:43.560Z,70.73
2017-08-24T20:41:44.978Z,70.44
2017-08-24T20:43:46.407Z,71.12
2017-08-24T20:46:28.808Z,71.22
2017-08-24T20:48:30.232Z,71.12
2017-08-24T20:50:31.659Z,71.02
2017-08-24T20:52:33.107Z,71.50
2017-08-24T20:54:34.511Z,71.12
2017-08-24T20:56:35.947Z,71.12
2017-08-24T20:58:37.366Z,70.44
2017-08-24T21:00:38.801Z,70.54
2017-08-24T21:02:40.238Z,70.54
2017-08-24T21:04:41.652Z,71.50
2017-08-24T21:06:43.137Z,71.02
2017-08-24T21:08:44.553Z,71.12
2017-08-24T21:10:46.006Z,71.56
2017-08-24T21:12:47.427Z,71.56
2017-08-24T21:14:48.891Z,71.85
2017-08-24T21:16:50.412Z,71.76
2017-08-24T21:18:51.847Z,71.60
2017-08-24T21:20:53.379Z,72.08
2017-08-24T21:22:54.804Z,72.14
2017-08-24T21:24:56.263Z,72.43
2017-08-24T21:26:57.690Z,71.76
2017-08-24T21:28:59.117Z,71.95
2017-08-24T21:31:00.558Z,72.33
2017-08-24T21:33:02.016Z,72.14
2017-08-24T21:35:03.507Z,71.66
2017-08-24T21:37:04.929Z,71.76
2017-08-24T21:39:06.350Z,72.14
2017-08-24T21:41:07.782Z,71.95
2017-08-24T21:43:09.212Z,72.33
2017-08-24T21:45:10.626Z,72.33
2017-08-24T21:47:12.070Z,72.33
2017-08-24T21:49:13.484Z,72.14
2017-08-24T21:51:14.912Z,71.95
2017-08-24T21:53:16.335Z,72.63
2017-08-24T21:55:17.753Z,73.58
2017-08-24T21:57:19.183Z,73.84
2017-08-24T21:59:20.604Z,73.36
2017-08-24T22:01:22.032Z,74.07
2017-08-24T22:03:23.453Z,73.74
2017-08-24T22:05:24.885Z,73.74
2017-08-24T22:07:26.310Z,74.13
2017-08-24T22:09:27.745Z,73.84
2017-08-24T22:11:29.171Z,73.07
2017-08-24T22:13:30.639Z,73.16
2017-08-24T22:15:32.071Z,73.55
2017-08-24T22:17:33.493Z,73.84
2017-08-24T22:19:34.919Z,73.46
2017-08-24T22:21:36.349Z,73.84
2017-08-24T22:23:37.775Z,74.13
2017-08-24T22:25:39.203Z,74.22
2017-08-24T22:27:40.627Z,74.32
2017-08-24T22:29:42.057Z,74.41
2017-08-24T22:31:43.479Z,74.57
2017-08-24T22:33:45.078Z,74.29
2017-08-24T22:35:46.523Z,74.67
2017-08-24T22:37:47.981Z,75.05
2017-08-24T22:39:49.416Z,74.96
2017-08-24T22:41:50.843Z,74.76
2017-08-24T22:43:52.267Z,75.24
2017-08-24T22:45:53.691Z,74.76
2017-08-24T22:47:55.105Z,74.86
2017-08-24T22:49:56.533Z,74.76
2017-08-24T22:51:57.960Z,75.05
2017-08-24T22:53:59.388Z,74.86
2017-08-24T22:56:00.816Z,75.34
2017-08-24T22:58:02.241Z,75.21
2017-08-24T23:00:03.732Z,75.49
2017-08-24T23:02:05.244Z,75.11
2017-08-24T23:04:06.677Z,75.21
2017-08-24T23:06:08.225Z,74.82
2017-08-24T23:08:09.783Z,75.49
2017-08-24T23:10:11.220Z,75.98
2017-08-24T23:12:12.718Z,75.31
2017-08-24T23:14:14.226Z,75.40
2017-08-24T23:16:15.746Z,75.88
2017-08-24T23:18:17.261Z,75.88
2017-08-24T23:20:18.674Z,75.69
2017-08-24T23:22:20.109Z,76.46
2017-08-24T23:24:21.540Z,75.79
2017-08-24T23:26:22.969Z,75.59
2017-08-24T23:28:24.387Z,75.40
2017-08-24T23:30:25.810Z,75.88
2017-08-24T23:32:27.278Z,76.07
2017-08-24T23:34:28.694Z,75.98
2017-08-24T23:36:30.133Z,75.49
2017-08-24T23:39:12.535Z,75.40
2017-08-24T23:41:13.969Z,75.94
2017-08-24T23:43:15.390Z,76.04
2017-08-24T23:45:16.813Z,76.04
2017-08-24T23:47:18.245Z,76.04
2017-08-24T23:49:19.689Z,75.84
2017-08-24T23:51:21.106Z,75.37
2017-08-24T23:53:22.547Z,76.04
2017-08-24T23:55:23.975Z,76.04
2017-08-24T23:57:25.457Z,76.04
2017-08-24T23:59:26.953Z,75.84
